createdAt,value
2017-12-22T00:00:50.950Z,10.37
2017-12-22T00:03:18.483Z,13.00
2017-12-22T00:05:46.018Z,12.73
2017-12-22T00:08:13.946Z,11.50
2017-12-22T00:10:41.453Z,11.87
2017-12-22T00:13:08.995Z,12.50
2017-12-22T00:15:45.389Z,12.07
2017-12-22T00:18:13.320Z,12.17
2017-12-22T00:20:40.973Z,11.87
2017-12-22T00:23:08.515Z,13.27
2017-12-22T00:25:36.054Z,12.30
2017-12-22T00:28:03.948Z,12.00
2017-12-22T00:30:31.460Z,12.80
2017-12-22T00:32:59.044Z,11.97
2017-12-22T00:35:26.578Z,12.40
2017-12-22T00:37:54.712Z,11.90
2017-12-22T00:40:22.214Z,11.23
2017-12-22T00:42:49.809Z,12.17
2017-12-22T00:45:17.359Z,12.03
2017-12-22T00:47:44.875Z,11.97
2017-12-22T00:50:12.719Z,11.70
2017-12-22T00:52:40.268Z,11.87
2017-12-22T00:55:07.780Z,12.07
2017-12-22T00:57:35.476Z,12.57
2017-12-22T01:00:03.061Z,12.00
2017-12-22T01:02:30.646Z,12.47
2017-12-22T01:04:58.193Z,12.47
2017-12-22T01:07:25.996Z,11.77
2017-12-22T01:09:53.559Z,12.77
2017-12-22T01:12:21.073Z,12.60
2017-12-22T01:14:48.727Z,12.50
2017-12-22T01:17:22.517Z,12.03
2017-12-22T01:19:50.243Z,12.47
2017-12-22T01:22:17.838Z,13.30
2017-12-22T01:24:45.411Z,12.43
2017-12-22T01:27:12.946Z,13.73
2017-12-22T01:29:40.910Z,13.10
2017-12-22T01:32:08.424Z,12.97
2017-12-22T01:34:35.960Z,13.37
2017-12-22T01:37:03.531Z,13.77
2017-12-22T01:39:31.196Z,13.23
2017-12-22T01:41:58.817Z,13.93
2017-12-22T01:44:26.443Z,13.00
2017-12-22T01:46:54.686Z,14.40
2017-12-22T01:49:22.207Z,14.60
2017-12-22T01:51:49.704Z,13.87
2017-12-22T01:54:17.245Z,13.90
2017-12-22T01:56:44.905Z,14.13
2017-12-22T01:59:12.508Z,14.50
2017-12-22T02:01:40.042Z,15.03
2017-12-22T02:04:08.048Z,14.43
2017-12-22T02:06:35.819Z,14.50
2017-12-22T02:09:03.331Z,13.67
2017-12-22T02:11:31.056Z,15.87
2017-12-22T02:13:58.619Z,15.87
2017-12-22T02:16:26.216Z,15.53
2017-12-22T02:18:53.792Z,16.93
2017-12-22T02:21:22.104Z,15.93
2017-12-22T02:23:49.631Z,15.30
2017-12-22T02:26:17.161Z,16.33
2017-12-22T02:28:44.719Z,16.50
2017-12-22T02:31:12.290Z,16.53
2017-12-22T02:33:40.884Z,16.53
2017-12-22T02:36:08.380Z,16.77
2017-12-22T02:38:37.317Z,16.97
2017-12-22T02:41:04.832Z,16.17
2017-12-22T02:43:32.388Z,17.33
2017-12-22T02:46:00.158Z,16.93
2017-12-22T02:48:27.722Z,16.83
2017-12-22T02:50:55.779Z,18.17
2017-12-22T02:53:23.439Z,17.67
2017-12-22T02:55:51.325Z,17.37
2017-12-22T02:58:18.876Z,17.00
2017-12-22T03:00:46.396Z,17.40
2017-12-22T03:03:13.924Z,17.90
2017-12-22T03:05:41.438Z,16.67
2017-12-22T03:08:09.042Z,15.93
2017-12-22T03:10:36.549Z,17.43
2017-12-22T03:13:04.491Z,17.93
2017-12-22T03:15:32.041Z,17.03
2017-12-22T03:17:59.559Z,17.57
2017-12-22T03:20:27.228Z,17.50
2017-12-22T03:22:54.732Z,18.00
2017-12-22T03:25:22.409Z,18.53
2017-12-22T03:27:50.962Z,16.40
2017-12-22T03:30:19.055Z,17.30
2017-12-22T03:32:46.575Z,16.90
2017-12-22T03:35:14.078Z,17.80
2017-12-22T03:37:41.643Z,17.13
2017-12-22T03:40:09.256Z,16.57
2017-12-22T03:42:36.808Z,18.00
2017-12-22T03:45:04.335Z,17.10
2017-12-22T03:47:31.964Z,17.90
2017-12-22T03:49:59.588Z,17.40
2017-12-22T03:52:27.191Z,16.30
2017-12-22T03:54:54.779Z,17.93
2017-12-22T03:57:22.389Z,16.43
2017-12-22T03:59:49.968Z,17.47
2017-12-22T04:02:17.466Z,16.43
2017-12-22T04:04:45.390Z,17.30
2017-12-22T04:07:12.916Z,17.07
2017-12-22T04:09:40.493Z,16.97
2017-12-22T04:12:08.157Z,18.07
2017-12-22T04:14:35.668Z,17.43
2017-12-22T04:17:03.247Z,16.90
2017-12-22T04:19:30.716Z,16.73
2017-12-22T04:21:58.536Z,16.53
2017-12-22T04:24:26.076Z,16.83
2017-12-22T04:26:54.560Z,16.30
2017-12-22T04:29:22.100Z,16.70
2017-12-22T04:31:49.603Z,15.20
2017-12-22T04:34:17.266Z,16.03
2017-12-22T04:36:44.800Z,17.50
2017-12-22T04:39:12.368Z,16.97
2017-12-22T04:41:39.932Z,16.00
2017-12-22T04:44:07.652Z,16.10
2017-12-22T04:46:35.196Z,16.00
2017-12-22T04:49:02.772Z,16.77
2017-12-22T04:51:30.343Z,16.87
2017-12-22T04:53:57.829Z,18.00
2017-12-22T04:56:25.685Z,16.87
2017-12-22T04:58:53.203Z,16.70
2017-12-22T05:01:20.702Z,16.60
2017-12-22T05:03:48.351Z,15.97
2017-12-22T05:06:16.020Z,17.03
2017-12-22T05:08:43.643Z,16.67
2017-12-22T05:11:11.153Z,15.30
2017-12-22T05:13:39.101Z,14.50
2017-12-22T05:16:06.606Z,16.37
2017-12-22T05:18:34.273Z,15.83
2017-12-22T05:21:01.915Z,16.40
2017-12-22T05:23:29.465Z,16.57
2017-12-22T05:25:57.283Z,17.43
2017-12-22T05:28:24.800Z,16.50
2017-12-22T05:30:52.762Z,16.60
2017-12-22T05:33:20.380Z,17.90
2017-12-22T05:35:47.933Z,17.00
2017-12-22T05:38:15.465Z,16.77
2017-12-22T05:40:42.989Z,18.03
2017-12-22T05:43:10.521Z,16.30
2017-12-22T05:45:39.121Z,17.30
2017-12-22T05:48:07.171Z,16.70
2017-12-22T05:50:34.663Z,17.20
2017-12-22T05:53:02.271Z,17.73
2017-12-22T05:55:29.953Z,17.87
2017-12-22T05:57:57.455Z,17.27
2017-12-22T06:00:26.167Z,17.17
2017-12-22T06:02:53.704Z,16.97
2017-12-22T06:05:21.311Z,16.90
2017-12-22T06:07:49.027Z,16.80
2017-12-22T06:10:16.521Z,17.67
2017-12-22T06:12:44.288Z,17.47
2017-12-22T06:15:11.805Z,16.70
2017-12-22T06:17:39.384Z,16.50
2017-12-22T06:20:06.912Z,17.63
2017-12-22T06:22:34.446Z,16.67
2017-12-22T06:25:02.030Z,16.10
2017-12-22T06:27:29.540Z,17.03
2017-12-22T06:29:57.051Z,16.17
2017-12-22T06:32:24.599Z,17.13
2017-12-22T06:34:52.132Z,16.00
2017-12-22T06:37:19.690Z,17.67
2017-12-22T06:39:47.429Z,16.87
2017-12-22T06:42:15.369Z,17.57
2017-12-22T06:44:42.901Z,16.60
2017-12-22T06:47:10.533Z,16.70
2017-12-22T06:49:38.153Z,16.60
2017-12-22T06:52:07.125Z,16.53
2017-12-22T06:54:34.780Z,16.83
2017-12-22T06:57:02.324Z,15.53
2017-12-22T06:59:31.969Z,15.17
2017-12-22T07:01:59.479Z,17.63
2017-12-22T07:04:27.075Z,15.03
2017-12-22T07:06:54.592Z,14.97
2017-12-22T07:09:22.219Z,16.10
2017-12-22T07:11:50.804Z,14.60
2017-12-22T07:14:18.401Z,15.07
2017-12-22T07:16:45.928Z,14.90
2017-12-22T07:19:13.434Z,14.97
2017-12-22T07:21:42.771Z,14.90
2017-12-22T07:24:10.285Z,14.70
2017-12-22T07:26:37.959Z,14.93
2017-12-22T07:29:05.499Z,15.27
2017-12-22T07:31:33.159Z,14.20
2017-12-22T07:34:00.707Z,15.23
2017-12-22T07:36:28.208Z,14.57
2017-12-22T07:38:55.900Z,14.30
2017-12-22T07:41:23.450Z,14.27
2017-12-22T07:43:50.975Z,16.10
2017-12-22T07:46:18.784Z,14.77
2017-12-22T07:48:46.647Z,14.63
2017-12-22T07:51:14.144Z,14.30
2017-12-22T07:53:41.819Z,14.53
2017-12-22T07:56:09.403Z,13.10
2017-12-22T07:58:37.562Z,13.10
2017-12-22T08:01:05.090Z,14.57
2017-12-22T08:03:32.599Z,13.90
2017-12-22T08:06:00.574Z,13.60
2017-12-22T08:08:28.074Z,15.30
2017-12-22T08:10:55.685Z,14.50
2017-12-22T08:13:23.222Z,12.03
2017-12-22T08:15:50.760Z,14.77
2017-12-22T08:18:18.292Z,12.90
2017-12-22T08:20:45.796Z,14.60
2017-12-22T08:23:13.436Z,13.63
2017-12-22T08:25:40.970Z,13.67
2017-12-22T08:28:08.492Z,13.07
2017-12-22T08:30:36.164Z,13.90
2017-12-22T08:33:03.788Z,13.17
2017-12-22T08:35:31.436Z,12.77
2017-12-22T08:37:58.986Z,12.43
2017-12-22T08:40:26.639Z,12.43
2017-12-22T08:42:54.144Z,12.10
2017-12-22T08:45:21.664Z,12.73
2017-12-22T08:47:49.320Z,13.07
2017-12-22T08:50:16.840Z,11.50
2017-12-22T08:52:44.382Z,13.17
2017-12-22T08:55:12.106Z,12.57
2017-12-22T08:57:39.725Z,12.80
2017-12-22T09:00:07.261Z,12.57
2017-12-22T09:02:34.791Z,10.10
2017-12-22T09:05:02.349Z,10.40
2017-12-22T09:07:29.892Z,12.07
2017-12-22T09:09:57.457Z,11.20
2017-12-22T09:12:25.028Z,11.40
2017-12-22T09:14:52.960Z,10.97
2017-12-22T09:17:20.496Z,10.73
2017-12-22T09:19:48.030Z,10.40
2017-12-22T09:22:15.587Z,10.80
2017-12-22T09:24:43.164Z,10.77
2017-12-22T09:27:10.823Z,10.03
2017-12-22T09:29:38.845Z,10.60
2017-12-22T09:32:06.393Z,9.73
2017-12-22T09:34:34.214Z,9.90
2017-12-22T09:37:01.732Z,10.00
2017-12-22T09:39:29.314Z,10.60
2017-12-22T09:41:56.851Z,9.60
2017-12-22T09:44:24.488Z,11.43
2017-12-22T09:46:51.999Z,9.30
2017-12-22T09:49:19.585Z,11.07
2017-12-22T09:51:47.254Z,11.03
2017-12-22T09:54:14.772Z,10.10
2017-12-22T09:56:42.313Z,11.33
2017-12-22T09:59:09.853Z,11.67
2017-12-22T10:01:37.716Z,10.40
2017-12-22T10:04:05.218Z,11.17
2017-12-22T10:06:32.805Z,10.67
2017-12-22T10:09:00.327Z,9.47
2017-12-22T10:11:27.837Z,9.63
2017-12-22T10:13:57.014Z,9.70
2017-12-22T10:16:24.545Z,9.80
2017-12-22T10:18:52.084Z,11.40
2017-12-22T10:21:19.625Z,11.00
2017-12-22T10:23:47.400Z,9.90
2017-12-22T10:26:14.976Z,9.77
2017-12-22T10:28:42.560Z,10.70
2017-12-22T10:31:10.081Z,9.90
2017-12-22T10:33:37.669Z,8.43
2017-12-22T10:36:05.205Z,10.30
2017-12-22T10:38:33.041Z,9.70
2017-12-22T10:41:00.563Z,9.27
2017-12-22T10:43:28.415Z,9.77
2017-12-22T10:45:56.036Z,10.07
2017-12-22T10:48:23.573Z,9.23
2017-12-22T10:50:51.243Z,9.37
2017-12-22T10:53:18.801Z,9.73
2017-12-22T10:55:46.368Z,9.50
2017-12-22T10:58:13.913Z,9.10
2017-12-22T11:00:41.473Z,9.07
2017-12-22T11:03:08.963Z,9.87
2017-12-22T11:05:36.552Z,11.20
2017-12-22T11:08:04.077Z,8.30
2017-12-22T11:10:33.111Z,8.70
2017-12-22T11:13:00.611Z,8.53
2017-12-22T11:15:28.484Z,8.00
2017-12-22T11:17:56.064Z,8.57
2017-12-22T11:20:23.574Z,7.50
2017-12-22T11:22:51.121Z,8.10
2017-12-22T11:25:18.776Z,8.17
2017-12-22T11:27:46.437Z,7.73
2017-12-22T11:30:14.228Z,8.30
2017-12-22T11:32:41.784Z,7.20
2017-12-22T11:35:09.320Z,7.60
2017-12-22T11:37:37.055Z,7.47
2017-12-22T11:40:04.580Z,6.07
2017-12-22T11:42:32.117Z,6.83
2017-12-22T11:44:59.608Z,7.60
2017-12-22T11:47:27.160Z,6.97
2017-12-22T11:49:54.755Z,7.23
2017-12-22T11:52:22.318Z,7.50
2017-12-22T11:54:49.828Z,7.00
2017-12-22T11:57:20.161Z,7.53
2017-12-22T11:59:47.735Z,7.33
2017-12-22T12:02:15.266Z,6.23
2017-12-22T12:04:42.955Z,7.50
2017-12-22T12:07:10.449Z,6.97
2017-12-22T12:09:37.971Z,6.97
2017-12-22T12:12:05.489Z,8.10
2017-12-22T12:14:33.016Z,7.37
2017-12-22T12:17:00.526Z,7.73
2017-12-22T12:19:28.167Z,7.20
2017-12-22T12:21:55.721Z,7.70
2017-12-22T12:24:23.261Z,7.50
2017-12-22T12:26:50.883Z,7.93
2017-12-22T12:29:18.398Z,6.63
2017-12-22T12:31:45.929Z,6.73
2017-12-22T12:34:13.492Z,6.00
2017-12-22T12:36:41.112Z,7.00
2017-12-22T12:39:08.624Z,6.10
2017-12-22T12:41:36.156Z,6.03
2017-12-22T12:44:03.669Z,5.40
2017-12-22T12:46:31.536Z,4.90
2017-12-22T12:48:59.145Z,5.63
2017-12-22T12:51:26.788Z,6.37
2017-12-22T12:53:54.389Z,5.37
2017-12-22T12:56:21.939Z,6.13
2017-12-22T12:58:49.503Z,5.60
2017-12-22T13:01:17.012Z,5.83
2017-12-22T13:03:44.527Z,5.53
2017-12-22T13:06:12.045Z,5.17
2017-12-22T13:08:39.717Z,6.33
2017-12-22T13:11:08.029Z,5.60
2017-12-22T13:13:35.574Z,6.70
2017-12-22T13:16:03.165Z,5.03
2017-12-22T13:18:30.755Z,5.07
2017-12-22T13:20:58.286Z,4.90
2017-12-22T13:23:25.975Z,5.53
2017-12-22T13:25:53.480Z,4.73
2017-12-22T13:28:21.285Z,5.20
2017-12-22T13:30:49.132Z,4.80
2017-12-22T13:33:16.712Z,5.00
2017-12-22T13:35:44.320Z,6.37
2017-12-22T13:38:11.887Z,4.43
2017-12-22T13:40:39.502Z,4.10
2017-12-22T13:43:07.001Z,3.83
2017-12-22T13:45:34.636Z,4.97
2017-12-22T13:48:02.128Z,4.20
2017-12-22T13:50:29.897Z,4.47
2017-12-22T13:52:58.396Z,4.40
2017-12-22T13:55:25.963Z,4.23
2017-12-22T13:57:54.447Z,4.37
2017-12-22T14:00:21.977Z,4.67
2017-12-22T14:02:49.539Z,5.80
2017-12-22T14:05:17.136Z,5.63
2017-12-22T14:07:44.729Z,6.03
2017-12-22T14:10:12.284Z,5.13
2017-12-22T14:12:39.805Z,5.50
2017-12-22T14:15:07.378Z,4.70
2017-12-22T14:17:34.932Z,4.70
2017-12-22T14:20:02.470Z,4.73
2017-12-22T14:22:30.160Z,4.03
2017-12-22T14:24:57.712Z,3.87
2017-12-22T14:27:25.287Z,3.40
2017-12-22T14:29:52.810Z,3.30
2017-12-22T14:32:20.344Z,3.60
2017-12-22T14:34:47.902Z,3.47
2017-12-22T14:37:15.436Z,3.20
2017-12-22T14:39:43.019Z,3.60
2017-12-22T14:42:10.600Z,3.80
2017-12-22T14:44:38.173Z,3.37
2017-12-22T14:47:05.720Z,3.60
2017-12-22T14:49:33.981Z,3.70
2017-12-22T14:52:01.594Z,3.67
2017-12-22T14:54:29.151Z,3.97
2017-12-22T14:56:56.785Z,3.03
2017-12-22T14:59:24.299Z,2.70
2017-12-22T15:01:51.862Z,3.50
2017-12-22T15:04:19.399Z,3.27
2017-12-22T15:06:46.967Z,2.93
2017-12-22T15:09:14.545Z,3.23
2017-12-22T15:11:42.242Z,3.20
2017-12-22T15:14:09.787Z,3.10
2017-12-22T15:16:37.350Z,3.13
2017-12-22T15:19:04.931Z,3.43
2017-12-22T15:21:32.434Z,3.53
2017-12-22T15:24:00.075Z,3.20
2017-12-22T15:26:27.593Z,3.10
2017-12-22T15:28:55.131Z,3.30
2017-12-22T15:31:22.677Z,3.60
2017-12-22T15:33:50.277Z,3.53
2017-12-22T15:36:17.790Z,3.57
2017-12-22T15:38:45.461Z,3.40
2017-12-22T15:41:13.300Z,3.50
2017-12-22T15:43:41.010Z,3.40
2017-12-22T15:46:08.623Z,4.13
2017-12-22T15:48:36.127Z,4.00
2017-12-22T15:51:04.841Z,4.30
2017-12-22T15:53:32.391Z,4.83
2017-12-22T15:55:59.990Z,4.80
2017-12-22T15:58:27.708Z,4.87
2017-12-22T16:00:55.328Z,4.63
2017-12-22T16:03:23.012Z,4.73
2017-12-22T16:05:50.568Z,4.63
2017-12-22T16:08:18.153Z,4.90
2017-12-22T16:10:45.727Z,4.43
2017-12-22T16:13:13.303Z,4.33
2017-12-22T16:15:40.982Z,4.50
2017-12-22T16:18:08.523Z,4.90
2017-12-22T16:20:36.024Z,5.30
2017-12-22T16:23:03.529Z,5.17
2017-12-22T16:25:31.095Z,5.40
2017-12-22T16:27:58.602Z,4.33
2017-12-22T16:30:26.131Z,4.37
2017-12-22T16:32:53.643Z,4.50
2017-12-22T16:35:21.304Z,4.80
2017-12-22T16:37:48.813Z,4.40
2017-12-22T16:40:16.427Z,4.70
2017-12-22T16:42:43.936Z,5.53
2017-12-22T16:45:11.488Z,5.13
2017-12-22T16:47:39.082Z,5.13
2017-12-22T16:50:06.712Z,5.00
2017-12-22T16:52:34.446Z,5.10
2017-12-22T16:55:01.941Z,5.30
2017-12-22T16:57:29.507Z,5.03
2017-12-22T16:59:57.054Z,5.53
2017-12-22T17:02:24.754Z,7.90
2017-12-22T17:04:53.327Z,6.70
2017-12-22T17:07:20.913Z,7.23
2017-12-22T17:09:48.458Z,7.10
2017-12-22T17:12:16.087Z,7.13
2017-12-22T17:14:43.643Z,6.73
2017-12-22T17:17:11.241Z,6.33
2017-12-22T17:19:38.789Z,6.97
2017-12-22T17:22:06.475Z,8.20
2017-12-22T17:24:34.157Z,7.70
2017-12-22T17:27:01.763Z,7.37
2017-12-22T17:29:29.328Z,6.77
2017-12-22T17:31:56.881Z,8.67
2017-12-22T17:34:24.480Z,7.80
2017-12-22T17:36:52.096Z,7.37
2017-12-22T17:39:19.657Z,7.63
2017-12-22T17:41:47.202Z,6.83
2017-12-22T17:44:14.851Z,6.40
2017-12-22T17:46:42.432Z,78.17
2017-12-22T17:49:10.027Z,10.17
2017-12-22T17:51:37.577Z,6.80
2017-12-22T17:54:05.217Z,6.20
2017-12-22T17:56:32.803Z,6.57
2017-12-22T17:59:00.517Z,6.53
2017-12-22T18:01:28.387Z,6.80
2017-12-22T18:03:55.971Z,6.40
2017-12-22T18:06:23.553Z,6.73
2017-12-22T18:08:51.208Z,7.27
2017-12-22T18:11:18.811Z,7.93
2017-12-22T18:13:46.657Z,7.17
2017-12-22T18:16:14.656Z,7.10
2017-12-22T18:18:42.213Z,6.23
2017-12-22T18:21:09.866Z,5.80
2017-12-22T18:23:37.430Z,6.33
2017-12-22T18:26:04.980Z,5.90
2017-12-22T18:28:32.544Z,4.93
2017-12-22T18:31:00.114Z,5.40
2017-12-22T18:33:27.662Z,5.50
2017-12-22T18:35:55.226Z,6.10
2017-12-22T18:38:22.813Z,4.67
2017-12-22T18:40:50.384Z,5.20
2017-12-22T18:43:17.949Z,5.30
2017-12-22T18:45:45.615Z,5.27
2017-12-22T18:48:13.178Z,5.13
2017-12-22T18:50:40.740Z,5.80
2017-12-22T18:53:08.351Z,5.50
2017-12-22T18:55:35.936Z,5.87
2017-12-22T18:58:03.565Z,5.40
2017-12-22T19:00:31.163Z,5.10
2017-12-22T19:02:58.800Z,5.83
2017-12-22T19:05:26.383Z,6.13
2017-12-22T19:07:54.016Z,6.23
2017-12-22T19:10:21.604Z,6.03
2017-12-22T19:12:49.484Z,6.20
2017-12-22T19:15:17.072Z,6.00
2017-12-22T19:17:44.686Z,4.83
2017-12-22T19:20:12.282Z,4.73
2017-12-22T19:22:40.147Z,4.40
2017-12-22T19:25:07.800Z,4.40
2017-12-22T19:27:35.378Z,4.33
2017-12-22T19:30:02.986Z,4.80
2017-12-22T19:32:30.524Z,4.50
2017-12-22T19:34:58.106Z,4.57
2017-12-22T19:37:25.791Z,4.47
2017-12-22T19:39:53.455Z,7.27
2017-12-22T19:42:21.030Z,5.40
2017-12-22T19:44:49.257Z,5.50
2017-12-22T19:47:16.879Z,4.80
2017-12-22T19:49:44.480Z,4.63
2017-12-22T19:52:12.138Z,4.67
2017-12-22T19:54:39.806Z,4.93
2017-12-22T19:57:07.411Z,4.90
2017-12-22T19:59:35.525Z,4.37
2017-12-22T20:02:03.155Z,4.53
2017-12-22T20:04:30.829Z,4.93
2017-12-22T20:06:58.452Z,4.60
2017-12-22T20:09:26.081Z,4.40
2017-12-22T20:11:53.760Z,4.40
2017-12-22T20:14:21.464Z,4.10
2017-12-22T20:16:49.245Z,7.43
2017-12-22T20:19:16.883Z,3.83
2017-12-22T20:21:44.490Z,3.90
2017-12-22T20:24:12.117Z,4.33
2017-12-22T20:26:39.747Z,4.50
2017-12-22T20:29:08.051Z,4.60
2017-12-22T20:31:35.717Z,5.13
2017-12-22T20:34:03.427Z,4.70
2017-12-22T20:36:31.450Z,4.50
2017-12-22T20:38:59.194Z,4.50
2017-12-22T20:41:26.860Z,4.30
2017-12-22T20:43:54.556Z,4.67
2017-12-22T20:46:22.256Z,5.70
2017-12-22T20:48:50.017Z,5.53
2017-12-22T20:51:17.643Z,6.10
2017-12-22T20:53:45.284Z,6.43
2017-12-22T20:56:12.954Z,8.43
2017-12-22T20:58:40.683Z,7.93
2017-12-22T21:01:08.544Z,5.83
2017-12-22T21:03:36.243Z,5.03
2017-12-22T21:06:03.971Z,5.30
2017-12-22T21:08:33.184Z,4.20
2017-12-22T21:11:00.794Z,4.70
2017-12-22T21:13:28.473Z,4.93
2017-12-22T21:15:56.061Z,4.33
2017-12-22T21:18:23.732Z,4.87
2017-12-22T21:20:51.414Z,8.10
2017-12-22T21:23:19.151Z,6.70
2017-12-22T21:25:46.952Z,5.00
2017-12-22T21:28:14.611Z,6.80
2017-12-22T21:30:42.289Z,6.73
2017-12-22T21:33:09.932Z,6.13
2017-12-22T21:35:37.697Z,8.60
2017-12-22T21:38:05.279Z,6.67
2017-12-22T21:40:33.789Z,6.73
2017-12-22T21:43:01.472Z,6.73
2017-12-22T21:45:29.106Z,6.67
2017-12-22T21:47:56.660Z,5.77
2017-12-22T21:50:24.255Z,5.60
2017-12-22T21:52:51.813Z,5.40
2017-12-22T21:55:19.363Z,5.67
2017-12-22T21:57:46.955Z,5.60
2017-12-22T22:00:14.488Z,5.47
2017-12-22T22:02:42.099Z,6.10
2017-12-22T22:05:09.649Z,5.37
2017-12-22T22:07:37.545Z,5.37
2017-12-22T22:10:05.139Z,5.47
2017-12-22T22:12:32.678Z,5.90
2017-12-22T22:15:00.274Z,5.60
2017-12-22T22:17:27.905Z,6.47
2017-12-22T22:19:55.524Z,6.17
2017-12-22T22:22:23.223Z,5.67
2017-12-22T22:24:50.861Z,6.00
2017-12-22T22:27:18.401Z,6.13
2017-12-22T22:29:46.342Z,6.13
2017-12-22T22:32:14.113Z,5.43
2017-12-22T22:34:41.714Z,5.87
2017-12-22T22:37:09.311Z,5.97
2017-12-22T22:39:36.875Z,6.70
2017-12-22T22:42:04.517Z,6.43
2017-12-22T22:44:32.068Z,6.33
2017-12-22T22:46:59.612Z,6.40
2017-12-22T22:49:27.151Z,6.70
2017-12-22T22:51:54.733Z,6.70
2017-12-22T22:54:22.257Z,6.60
2017-12-22T22:56:49.912Z,6.17
2017-12-22T22:59:17.470Z,6.17
2017-12-22T23:01:45.043Z,6.33
2017-12-22T23:04:12.600Z,6.43
2017-12-22T23:06:40.183Z,7.20
2017-12-22T23:09:07.739Z,8.40
2017-12-22T23:11:35.331Z,8.30
2017-12-22T23:14:02.955Z,9.10
2017-12-22T23:16:30.490Z,7.17
2017-12-22T23:18:58.109Z,7.10
2017-12-22T23:21:25.748Z,8.07
2017-12-22T23:23:53.329Z,7.70
2017-12-22T23:26:20.987Z,8.30
2017-12-22T23:28:48.571Z,8.23
2017-12-22T23:31:16.197Z,7.93
2017-12-22T23:33:44.011Z,7.33
2017-12-22T23:36:11.565Z,7.20
2017-12-22T23:38:39.144Z,7.90
2017-12-22T23:41:06.769Z,7.73
2017-12-22T23:43:34.308Z,8.73
2017-12-22T23:46:01.897Z,8.00
2017-12-22T23:48:29.449Z,7.53
2017-12-22T23:50:57.021Z,8.07
2017-12-22T23:53:24.659Z,7.80
2017-12-22T23:55:52.255Z,8.10
2017-12-22T23:58:19.849Z,7.97
